Airfield :
LOGIN :

Register | Disclaimer

   EN    FR    IT 

 










Legend :    VFR   Marginal VFR   IFR   Intensive IFR   Very Intensive IFR
Visi :
Ceiling :
>= 8 km
>= 3000ft
5 to 8 km
1000 to 3000 ft
1500m to 5 km
500 to 1000 ft
800 to 1500m
200 to 500 ft
< 800m
< 200 ft
Symbols :   Thunderstorms  Fog  Heavy snow  Heavy precipitations  Wind > 20 kt
SIGMETs :     Misc.  Thunderstorms  Icing  Turbulence  Mountain Waves  Volcanic Ashes






- Airport Elevation : 19 ft
- IATA code : BEB


EGPL - Benbecula

CURRENT METAR :
  • 292020Z 27008KT 9999 SCT021 BKN042 07/06 Q0991

EXPIRED METARs :
  • 291850Z 27013KT 9999 NCD 08/06 Q0990
  • 291820Z AUTO 26014KT 9999 FEW039/// 08/06 Q0990
  • 291750Z AUTO 26017KT 9999 BKN039/// 08/06 Q0990

TAF TAF EGPL
Valid from the 29 at 15:00 until the 30 at 00:00 UTC


291358Z 2915/2924 21009KT 9999 SCT020
BECMG 2915/2917 27012KT
PROB30
TEMPO 2915/2917 27018G28KT 6000 SHRA BKN010
ATIS : +44 1870 604 818



MET'MAP, your aeronautical weather chart ! - Copyright ORBIFLY December 2007 - Disclaimer

ORBIFLY MET'MAP TEAM :

Programming & Development : Alexandra Zaïnal
Concept & original design : Baudouin d'Aumeries
Assistance for programming : Marc-Olivier Méhu
Technical & hardware support : Manuel Goepfert

Contact : metmap@orbifly.com




SOURCES & CREDITS :

   NOAA